Time,TemperatureF,DewpointF,PressureIn,WindDirection,WindDirectionDegrees,WindSpeedMPH,WindSpeedGustMPH,Humidity,HourlyPrecipIn,Conditions,Clouds,dailyrainin,SoftwareType,DateUTC
2013-01-13 00:11:00,26.1,20.0,30.09,NE,44,0.0,-999.0,76,-99.99,,,0.00,weatherlink.com 1.10,2013-01-13 06:11:00,
2013-01-13 00:27:00,26.0,19.0,30.07,NE,44,0.0,-999.0,76,-99.99,,,0.00,weatherlink.com 1.10,2013-01-13 06:27:00,
2013-01-13 00:41:00,25.8,19.0,30.09,NE,44,0.0,-999.0,76,-99.99,,,0.00,weatherlink.com 1.10,2013-01-13 06:41:00,
2013-01-13 00:56:00,25.8,19.0,30.02,NE,44,0.0,-999.0,76,-99.99,,,0.00,weatherlink.com 1.10,2013-01-13 06:56:00,
2013-01-13 01:11:00,25.7,19.0,30.02,NE,44,0.0,-999.0,76,-99.99,,,0.00,weatherlink.com 1.10,2013-01-13 07:11:00,
2013-01-13 01:27:00,25.6,19.0,30.03,NE,44,0.0,-999.0,75,-99.99,,,0.00,weatherlink.com 1.10,2013-01-13 07:27:00,
2013-01-13 01:41:00,25.6,18.0,30.05,NE,44,0.0,-999.0,74,-99.99,,,0.00,weatherlink.com 1.10,2013-01-13 07:41:00,
2013-01-13 01:56:00,25.4,18.0,30.01,NE,44,0.0,-999.0,74,-99.99,,,0.00,weatherlink.com 1.10,2013-01-13 07:56:00,
2013-01-13 02:11:00,25.6,18.0,30.06,NE,44,0.0,-999.0,73,-99.99,,,0.00,weatherlink.com 1.10,2013-01-13 08:11:00,
2013-01-13 02:27:00,25.6,18.0,30.08,NE,44,0.0,-999.0,73,-99.99,,,0.00,weatherlink.com 1.10,2013-01-13 08:27:00,
2013-01-13 02:41:00,25.7,18.0,30.09,NE,44,0.0,-999.0,73,-99.99,,,0.00,weatherlink.com 1.10,2013-01-13 08:41:00,
2013-01-13 02:56:00,25.7,18.0,30.08,NE,44,0.0,-999.0,73,-99.99,,,0.00,weatherlink.com 1.10,2013-01-13 08:56:00,
2013-01-13 03:11:00,25.6,18.0,30.12,NE,44,0.0,-999.0,72,-99.99,,,0.00,weatherlink.com 1.10,2013-01-13 09:11:00,
2013-01-13 03:27:00,25.6,18.0,30.13,NE,44,0.0,-999.0,72,-99.99,,,0.00,weatherlink.com 1.10,2013-01-13 09:27:00,
2013-01-13 03:41:00,25.6,17.0,30.11,NE,44,0.0,-999.0,71,-99.99,,,0.00,weatherlink.com 1.10,2013-01-13 09:41:00,
2013-01-13 03:56:00,25.4,17.0,30.14,NE,44,0.0,-999.0,71,-99.99,,,0.00,weatherlink.com 1.10,2013-01-13 09:56:00,
2013-01-13 04:11:00,25.4,18.0,30.12,NE,44,0.0,-999.0,73,-99.99,,,0.00,weatherlink.com 1.10,2013-01-13 10:11:00,
2013-01-13 04:27:00,25.3,18.0,30.10,NE,44,0.0,-999.0,73,-99.99,,,0.00,weatherlink.com 1.10,2013-01-13 10:27:00,
2013-01-13 04:41:00,25.1,17.0,30.14,NE,44,0.0,-999.0,72,-99.99,,,0.00,weatherlink.com 1.10,2013-01-13 10:41:00,
2013-01-13 04:56:00,24.8,17.0,30.13,NE,44,0.0,-999.0,71,-99.99,,,0.00,weatherlink.com 1.10,2013-01-13 10:56:00,
2013-01-13 05:11:00,24.5,16.0,30.16,NE,44,0.0,-999.0,71,-99.99,,,0.00,weatherlink.com 1.10,2013-01-13 11:11:00,
2013-01-13 05:27:00,24.1,16.0,30.15,NE,44,0.0,-999.0,70,-99.99,,,0.00,weatherlink.com 1.10,2013-01-13 11:27:00,
2013-01-13 05:41:00,23.6,15.0,30.14,NE,44,0.0,-999.0,70,-99.99,,,0.00,weatherlink.com 1.10,2013-01-13 11:41:00,
2013-01-13 05:56:00,-999.0,-99.9,30.15,North,-999,-999.0,-999.0,-999,-99.99,,,0.00,weatherlink.com 1.10,2013-01-13 11:56:00,
2013-01-13 06:11:00,-999.0,-99.9,30.13,North,-999,-999.0,-999.0,-999,-99.99,,,0.00,weatherlink.com 1.10,2013-01-13 12:11:00,
2013-01-13 06:27:00,-999.0,-99.9,30.12,North,-999,-999.0,-999.0,-999,-99.99,,,0.00,weatherlink.com 1.10,2013-01-13 12:27:00,
2013-01-13 06:41:00,21.8,13.0,30.16,NE,44,0.0,-999.0,70,-99.99,,,0.00,weatherlink.com 1.10,2013-01-13 12:41:00,
2013-01-13 06:56:00,21.3,13.0,30.17,NE,44,0.0,-999.0,70,-99.99,,,0.00,weatherlink.com 1.10,2013-01-13 12:56:00,
2013-01-13 07:11:00,20.8,12.0,30.20,NE,44,0.0,-999.0,69,-99.99,,,0.00,weatherlink.com 1.10,2013-01-13 13:11:00,
2013-01-13 07:27:00,20.2,12.0,30.20,NE,44,0.0,-999.0,69,-99.99,,,0.00,weatherlink.com 1.10,2013-01-13 13:27:00,
2013-01-13 07:41:00,19.9,11.0,30.20,NE,44,0.0,-999.0,68,-99.99,,,0.00,weatherlink.com 1.10,2013-01-13 13:41:00,
2013-01-13 07:56:00,19.7,11.0,30.21,NE,44,0.0,-999.0,68,-99.99,,,0.00,weatherlink.com 1.10,2013-01-13 13:56:00,
2013-01-13 08:11:00,19.5,11.0,30.22,NE,44,0.0,-999.0,68,-99.99,,,0.00,weatherlink.com 1.10,2013-01-13 14:11:00,
2013-01-13 08:27:00,19.9,11.0,30.23,NE,44,0.0,-999.0,68,-99.99,,,0.00,weatherlink.com 1.10,2013-01-13 14:27:00,
2013-01-13 08:41:00,20.3,11.0,30.25,NW,326,0.0,-999.0,68,-99.99,,,0.00,weatherlink.com 1.10,2013-01-13 14:41:00,
2013-01-13 08:56:00,20.5,11.0,30.26,North,360,0.0,-999.0,67,-99.99,,,0.00,weatherlink.com 1.10,2013-01-13 14:56:00,
2013-01-13 09:11:00,20.8,11.0,30.28,North,350,0.0,-999.0,67,-99.99,,,0.00,weatherlink.com 1.10,2013-01-13 15:11:00,
2013-01-13 09:27:00,21.9,12.0,30.30,North,5,0.0,-999.0,66,-99.99,,,0.00,weatherlink.com 1.10,2013-01-13 15:27:00,
2013-01-13 09:41:00,22.9,13.0,30.29,NNW,338,0.0,-999.0,65,-99.99,,,0.00,weatherlink.com 1.10,2013-01-13 15:41:00,
2013-01-13 09:56:00,22.7,12.0,30.29,NNW,338,0.0,-999.0,64,-99.99,,,0.00,weatherlink.com 1.10,2013-01-13 15:56:00,
2013-01-13 10:11:00,23.0,12.0,30.29,NNW,328,3.0,-999.0,63,-99.99,,,0.00,weatherlink.com 1.10,2013-01-13 16:11:00,
2013-01-13 10:27:00,23.6,13.0,30.30,North,5,9.0,-999.0,64,-99.99,,,0.00,weatherlink.com 1.10,2013-01-13 16:27:00,
2013-01-13 10:41:00,24.1,13.0,30.31,NW,308,6.0,-999.0,63,-99.99,,,0.00,weatherlink.com 1.10,2013-01-13 16:41:00,
2013-01-13 10:56:00,24.2,13.0,30.31,NNW,334,4.0,-999.0,63,-99.99,,,0.00,weatherlink.com 1.10,2013-01-13 16:56:00,
2013-01-13 11:11:00,25.1,14.0,30.30,North,355,0.0,-999.0,64,-99.99,,,0.00,weatherlink.com 1.10,2013-01-13 17:11:00,
2013-01-13 11:27:00,25.1,14.0,30.30,WNW,303,3.0,-999.0,63,-99.99,,,0.00,weatherlink.com 1.10,2013-01-13 17:27:00,
2013-01-13 11:41:00,25.8,14.0,30.30,WNW,294,13.0,-999.0,62,-99.99,,,0.00,weatherlink.com 1.10,2013-01-13 17:41:00,
2013-01-13 11:56:00,26.1,14.0,30.29,NW,319,6.0,-999.0,60,-99.99,,,0.00,weatherlink.com 1.10,2013-01-13 17:56:00,
2013-01-13 12:11:00,26.4,14.0,30.29,NW,310,2.0,-999.0,59,-99.99,,,0.00,weatherlink.com 1.10,2013-01-13 18:11:00,
2013-01-13 12:27:00,26.9,14.0,30.27,NW,326,2.0,-999.0,58,-99.99,,,0.00,weatherlink.com 1.10,2013-01-13 18:27:00,
2013-01-13 12:41:00,27.8,14.0,30.27,NW,320,8.0,-999.0,57,-99.99,,,0.00,weatherlink.com 1.10,2013-01-13 18:41:00,
2013-01-13 12:56:00,27.8,13.0,30.27,WNW,290,9.0,-999.0,55,-99.99,,,0.00,weatherlink.com 1.10,2013-01-13 18:56:00,
2013-01-13 13:11:00,28.8,14.0,30.27,North,349,7.0,-999.0,55,-99.99,,,0.00,weatherlink.com 1.10,2013-01-13 19:11:00,
2013-01-13 13:27:00,28.7,14.0,30.26,North,360,14.0,-999.0,54,-99.99,,,0.00,weatherlink.com 1.10,2013-01-13 19:27:00,
2013-01-13 13:41:00,29.1,14.0,30.26,NNW,342,5.0,-999.0,54,-99.99,,,0.00,weatherlink.com 1.10,2013-01-13 19:41:00,
2013-01-13 13:56:00,29.7,15.0,30.26,NNW,336,9.0,-999.0,55,-99.99,,,0.00,weatherlink.com 1.10,2013-01-13 19:56:00,
2013-01-13 14:11:00,30.1,15.0,30.26,North,5,0.0,-999.0,54,-99.99,,,0.00,weatherlink.com 1.10,2013-01-13 20:11:00,
2013-01-13 14:27:00,30.3,15.0,30.26,North,355,0.0,-999.0,53,-99.99,,,0.00,weatherlink.com 1.10,2013-01-13 20:27:00,
2013-01-13 14:41:00,31.3,16.0,30.26,North,355,0.0,-999.0,54,-99.99,,,0.00,weatherlink.com 1.10,2013-01-13 20:41:00,
2013-01-13 14:56:00,31.0,15.0,30.26,NE,36,3.0,-999.0,51,-99.99,,,0.00,weatherlink.com 1.10,2013-01-13 20:56:00,
2013-01-13 15:11:00,30.9,15.0,30.27,NNE,13,3.0,-999.0,51,-99.99,,,0.00,weatherlink.com 1.10,2013-01-13 21:11:00,
2013-01-13 15:27:00,31.0,15.0,30.27,North,5,5.0,-999.0,51,-99.99,,,0.00,weatherlink.com 1.10,2013-01-13 21:27:00,
2013-01-13 15:41:00,30.9,15.0,30.27,NE,34,4.0,-999.0,52,-99.99,,,0.00,weatherlink.com 1.10,2013-01-13 21:41:00,
2013-01-13 15:56:00,31.2,15.0,30.27,NNE,18,4.0,-999.0,52,-99.99,,,0.00,weatherlink.com 1.10,2013-01-13 21:56:00,
2013-01-13 16:11:00,30.3,15.0,30.27,NNE,24,6.0,-999.0,53,-99.99,,,0.00,weatherlink.com 1.10,2013-01-13 22:11:00,
2013-01-13 16:27:00,30.1,15.0,30.28,NNE,13,0.0,-999.0,54,-99.99,,,0.00,weatherlink.com 1.10,2013-01-13 22:27:00,
2013-01-13 16:41:00,30.1,15.0,30.28,NE,37,3.0,-999.0,53,-99.99,,,0.00,weatherlink.com 1.10,2013-01-13 22:41:00,
2013-01-13 16:56:00,29.5,15.0,30.28,NNE,13,5.0,-999.0,54,-99.99,,,0.00,weatherlink.com 1.10,2013-01-13 22:56:00,
2013-01-13 17:11:00,29.4,15.0,30.29,NE,36,5.0,-999.0,55,-99.99,,,0.00,weatherlink.com 1.10,2013-01-13 23:11:00,
2013-01-13 17:27:00,28.8,14.0,30.29,NNE,24,2.0,-999.0,55,-99.99,,,0.00,weatherlink.com 1.10,2013-01-13 23:27:00,
2013-01-13 17:41:00,28.4,15.0,30.29,NNE,19,2.0,-999.0,57,-99.99,,,0.00,weatherlink.com 1.10,2013-01-13 23:41:00,
2013-01-13 17:56:00,28.1,15.0,30.29,NNE,27,0.0,-999.0,58,-99.99,,,0.00,weatherlink.com 1.10,2013-01-13 23:56:00,
2013-01-13 18:11:00,27.8,15.0,30.30,NNE,25,3.0,-999.0,59,-99.99,,,0.00,weatherlink.com 1.10,2013-01-14 00:11:00,
2013-01-13 18:27:00,27.6,15.0,30.31,NNE,25,0.0,-999.0,59,-99.99,,,0.00,weatherlink.com 1.10,2013-01-14 00:27:00,
2013-01-13 18:41:00,27.2,15.0,30.31,NNE,24,2.0,-999.0,60,-99.99,,,0.00,weatherlink.com 1.10,2013-01-14 00:41:00,
2013-01-13 18:56:00,27.0,15.0,30.30,NNE,24,0.0,-999.0,61,-99.99,,,0.00,weatherlink.com 1.10,2013-01-14 00:56:00,
2013-01-13 19:11:00,26.6,15.0,30.31,NNE,23,3.0,-999.0,62,-99.99,,,0.00,weatherlink.com 1.10,2013-01-14 01:11:00,
2013-01-13 19:27:00,26.6,15.0,30.31,NNE,23,0.0,-999.0,62,-99.99,,,0.00,weatherlink.com 1.10,2013-01-14 01:27:00,
2013-01-13 19:41:00,26.4,15.0,30.32,NNE,23,0.0,-999.0,62,-99.99,,,0.00,weatherlink.com 1.10,2013-01-14 01:41:00,
2013-01-13 19:57:00,26.3,15.0,30.32,NNE,23,0.0,-999.0,62,-99.99,,,0.00,weatherlink.com 1.10,2013-01-14 01:57:00,
2013-01-13 20:12:00,26.0,15.0,30.32,NNE,29,2.0,-999.0,63,-99.99,,,0.00,weatherlink.com 1.10,2013-01-14 02:12:00,
2013-01-13 20:28:00,25.8,15.0,30.31,NNE,33,1.0,-999.0,64,-99.99,,,0.00,weatherlink.com 1.10,2013-01-14 02:28:00,
2013-01-13 20:41:00,25.4,15.0,30.32,NNE,33,2.0,-999.0,65,-99.99,,,0.00,weatherlink.com 1.10,2013-01-14 02:41:00,
2013-01-13 20:57:00,25.0,15.0,30.32,NNE,33,1.0,-999.0,66,-99.99,,,0.00,weatherlink.com 1.10,2013-01-14 02:57:00,
2013-01-13 21:12:00,24.8,15.0,30.33,NNE,32,1.0,-999.0,67,-99.99,,,0.00,weatherlink.com 1.10,2013-01-14 03:12:00,
2013-01-13 21:28:00,24.7,15.0,30.33,NNE,32,2.0,-999.0,67,-99.99,,,0.00,weatherlink.com 1.10,2013-01-14 03:28:00,
2013-01-13 21:42:00,24.5,15.0,30.33,NNE,32,1.0,-999.0,67,-99.99,,,0.00,weatherlink.com 1.10,2013-01-14 03:42:00,
2013-01-13 21:57:00,24.4,15.0,30.34,NNE,32,1.0,-999.0,68,-99.99,,,0.00,weatherlink.com 1.10,2013-01-14 03:57:00,
2013-01-13 22:12:00,24.1,15.0,30.34,NNE,32,0.0,-999.0,68,-99.99,,,0.00,weatherlink.com 1.10,2013-01-14 04:12:00,
2013-01-13 22:28:00,23.9,15.0,30.34,NNE,32,1.0,-999.0,69,-99.99,,,0.00,weatherlink.com 1.10,2013-01-14 04:28:00,
2013-01-13 22:42:00,23.6,15.0,30.34,NNE,32,0.0,-999.0,69,-99.99,,,0.00,weatherlink.com 1.10,2013-01-14 04:42:00,
2013-01-13 22:57:00,23.5,15.0,30.35,NNE,32,0.0,-999.0,70,-99.99,,,0.00,weatherlink.com 1.10,2013-01-14 04:57:00,
2013-01-13 23:12:00,23.2,15.0,30.35,NNE,32,1.0,-999.0,70,-99.99,,,0.00,weatherlink.com 1.10,2013-01-14 05:12:00,
2013-01-13 23:28:00,23.0,15.0,30.37,NNE,32,2.0,-999.0,70,-99.99,,,0.00,weatherlink.com 1.10,2013-01-14 05:28:00,
2013-01-13 23:42:00,22.9,15.0,30.38,NNE,32,0.0,-999.0,71,-99.99,,,0.00,weatherlink.com 1.10,2013-01-14 05:42:00,
2013-01-13 23:57:00,22.9,15.0,30.39,NNE,32,1.0,-999.0,71,-99.99,,,0.00,weatherlink.com 1.10,2013-01-14 05:57:00,